sensor_id;sensor_type;location;lat;lon;timestamp;P1;durP1;ratioP1;P2;durP2;ratioP2
55710;SDS011;41612;51.994;5.880;2023-04-03T00:01:32;5.22;;;2.10;;
55710;SDS011;41612;51.994;5.880;2023-04-03T00:03:58;5.03;;;1.83;;
55710;SDS011;41612;51.994;5.880;2023-04-03T00:06:24;3.97;;;2.28;;
55710;SDS011;41612;51.994;5.880;2023-04-03T00:08:51;6.65;;;2.50;;
55710;SDS011;41612;51.994;5.880;2023-04-03T00:11:17;7.05;;;2.78;;
55710;SDS011;41612;51.994;5.880;2023-04-03T00:13:43;5.43;;;2.15;;
55710;SDS011;41612;51.994;5.880;2023-04-03T00:16:10;6.25;;;2.47;;
55710;SDS011;41612;51.994;5.880;2023-04-03T00:18:37;4.43;;;2.67;;
55710;SDS011;41612;51.994;5.880;2023-04-03T00:21:04;4.90;;;2.17;;
55710;SDS011;41612;51.994;5.880;2023-04-03T00:23:30;3.75;;;2.53;;
55710;SDS011;41612;51.994;5.880;2023-04-03T00:25:56;4.65;;;2.15;;
55710;SDS011;41612;51.994;5.880;2023-04-03T00:28:22;7.72;;;3.10;;
55710;SDS011;41612;51.994;5.880;2023-04-03T00:30:48;6.00;;;2.20;;
55710;SDS011;41612;51.994;5.880;2023-04-03T00:33:15;5.68;;;2.30;;
55710;SDS011;41612;51.994;5.880;2023-04-03T00:35:41;6.72;;;2.38;;
55710;SDS011;41612;51.994;5.880;2023-04-03T00:38:07;9.30;;;2.58;;
55710;SDS011;41612;51.994;5.880;2023-04-03T00:40:34;7.90;;;2.78;;
55710;SDS011;41612;51.994;5.880;2023-04-03T00:43:05;5.80;;;2.50;;
55710;SDS011;41612;51.994;5.880;2023-04-03T00:45:40;8.90;;;3.58;;
55710;SDS011;41612;51.994;5.880;2023-04-03T00:48:10;4.53;;;2.63;;
55710;SDS011;41612;51.994;5.880;2023-04-03T00:50:40;4.93;;;2.03;;
55710;SDS011;41612;51.994;5.880;2023-04-03T00:53:08;4.55;;;2.00;;
55710;SDS011;41612;51.994;5.880;2023-04-03T00:55:38;4.38;;;3.03;;
55710;SDS011;41612;51.994;5.880;2023-04-03T00:58:04;3.65;;;2.20;;
55710;SDS011;41612;51.994;5.880;2023-04-03T01:00:34;6.63;;;2.33;;
55710;SDS011;41612;51.994;5.880;2023-04-03T01:03:03;4.45;;;2.90;;
55710;SDS011;41612;51.994;5.880;2023-04-03T01:05:30;4.10;;;2.20;;
55710;SDS011;41612;51.994;5.880;2023-04-03T01:07:58;4.60;;;1.88;;
55710;SDS011;41612;51.994;5.880;2023-04-03T01:10:25;6.72;;;2.20;;
55710;SDS011;41612;51.994;5.880;2023-04-03T01:12:51;3.72;;;2.30;;
55710;SDS011;41612;51.994;5.880;2023-04-03T01:15:27;5.03;;;1.83;;
55710;SDS011;41612;51.994;5.880;2023-04-03T01:17:59;6.05;;;2.33;;
55710;SDS011;41612;51.994;5.880;2023-04-03T01:25:40;4.83;;;2.10;;
55710;SDS011;41612;51.994;5.880;2023-04-03T01:28:14;6.28;;;2.25;;
55710;SDS011;41612;51.994;5.880;2023-04-03T01:33:47;11.50;;;2.53;;
55710;SDS011;41612;51.994;5.880;2023-04-03T01:36:15;5.80;;;2.47;;
55710;SDS011;41612;51.994;5.880;2023-04-03T01:38:43;4.95;;;2.38;;
55710;SDS011;41612;51.994;5.880;2023-04-03T01:41:09;5.93;;;2.30;;
55710;SDS011;41612;51.994;5.880;2023-04-03T01:43:35;4.05;;;2.58;;
55710;SDS011;41612;51.994;5.880;2023-04-03T01:46:01;4.78;;;2.78;;
55710;SDS011;41612;51.994;5.880;2023-04-03T01:48:27;6.30;;;2.20;;
55710;SDS011;41612;51.994;5.880;2023-04-03T01:50:53;4.80;;;2.30;;
55710;SDS011;41612;51.994;5.880;2023-04-03T01:53:19;3.53;;;2.00;;
55710;SDS011;41612;51.994;5.880;2023-04-03T01:55:45;6.88;;;2.33;;
55710;SDS011;41612;51.994;5.880;2023-04-03T01:58:11;5.00;;;2.33;;
55710;SDS011;41612;51.994;5.880;2023-04-03T02:00:37;7.50;;;2.33;;
55710;SDS011;41612;51.994;5.880;2023-04-03T02:03:02;4.35;;;2.15;;
55710;SDS011;41612;51.994;5.880;2023-04-03T02:05:28;4.78;;;2.20;;
55710;SDS011;41612;51.994;5.880;2023-04-03T02:07:54;4.55;;;2.10;;
55710;SDS011;41612;51.994;5.880;2023-04-03T02:10:20;5.95;;;2.63;;
55710;SDS011;41612;51.994;5.880;2023-04-03T02:12:46;5.18;;;2.10;;
55710;SDS011;41612;51.994;5.880;2023-04-03T02:15:11;6.07;;;1.77;;
55710;SDS011;41612;51.994;5.880;2023-04-03T02:17:37;4.22;;;2.00;;
55710;SDS011;41612;51.994;5.880;2023-04-03T02:20:03;5.85;;;2.17;;
55710;SDS011;41612;51.994;5.880;2023-04-03T02:22:29;9.00;;;2.30;;
55710;SDS011;41612;51.994;5.880;2023-04-03T02:24:56;5.05;;;1.90;;
55710;SDS011;41612;51.994;5.880;2023-04-03T02:27:21;5.90;;;2.28;;
55710;SDS011;41612;51.994;5.880;2023-04-03T02:29:47;5.50;;;1.92;;
55710;SDS011;41612;51.994;5.880;2023-04-03T02:32:14;6.25;;;2.33;;
55710;SDS011;41612;51.994;5.880;2023-04-03T02:34:40;6.03;;;2.20;;
55710;SDS011;41612;51.994;5.880;2023-04-03T02:37:07;7.82;;;2.13;;
55710;SDS011;41612;51.994;5.880;2023-04-03T02:39:32;5.18;;;2.00;;
55710;SDS011;41612;51.994;5.880;2023-04-03T02:41:59;3.70;;;2.17;;
55710;SDS011;41612;51.994;5.880;2023-04-03T02:44:26;5.90;;;3.45;;
55710;SDS011;41612;51.994;5.880;2023-04-03T02:46:52;6.63;;;2.53;;
55710;SDS011;41612;51.994;5.880;2023-04-03T02:49:18;5.60;;;1.90;;
55710;SDS011;41612;51.994;5.880;2023-04-03T02:51:43;10.38;;;2.45;;
55710;SDS011;41612;51.994;5.880;2023-04-03T02:54:10;7.43;;;2.70;;
55710;SDS011;41612;51.994;5.880;2023-04-03T02:56:39;17.63;;;3.78;;
55710;SDS011;41612;51.994;5.880;2023-04-03T02:59:05;6.63;;;2.53;;
55710;SDS011;41612;51.994;5.880;2023-04-03T03:01:34;6.22;;;2.35;;
55710;SDS011;41612;51.994;5.880;2023-04-03T03:04:01;7.38;;;2.35;;
55710;SDS011;41612;51.994;5.880;2023-04-03T03:06:27;6.60;;;2.28;;
55710;SDS011;41612;51.994;5.880;2023-04-03T03:08:53;11.77;;;2.65;;
55710;SDS011;41612;51.994;5.880;2023-04-03T03:11:19;5.32;;;2.35;;
55710;SDS011;41612;51.994;5.880;2023-04-03T03:13:46;6.47;;;2.70;;
55710;SDS011;41612;51.994;5.880;2023-04-03T03:16:11;5.30;;;2.45;;
55710;SDS011;41612;51.994;5.880;2023-04-03T03:18:37;5.40;;;2.10;;
55710;SDS011;41612;51.994;5.880;2023-04-03T03:21:03;5.53;;;2.35;;
55710;SDS011;41612;51.994;5.880;2023-04-03T03:23:29;7.65;;;2.22;;
55710;SDS011;41612;51.994;5.880;2023-04-03T03:26:04;5.80;;;2.25;;
55710;SDS011;41612;51.994;5.880;2023-04-03T03:28:33;5.82;;;2.17;;
55710;SDS011;41612;51.994;5.880;2023-04-03T03:31:01;8.57;;;2.47;;
55710;SDS011;41612;51.994;5.880;2023-04-03T03:33:29;3.83;;;2.20;;
55710;SDS011;41612;51.994;5.880;2023-04-03T03:35:55;4.32;;;2.17;;
55710;SDS011;41612;51.994;5.880;2023-04-03T03:38:21;7.65;;;2.42;;
55710;SDS011;41612;51.994;5.880;2023-04-03T03:40:48;6.07;;;3.22;;
55710;SDS011;41612;51.994;5.880;2023-04-03T03:43:16;7.50;;;2.67;;
55710;SDS011;41612;51.994;5.880;2023-04-03T03:45:42;5.07;;;2.13;;
55710;SDS011;41612;51.994;5.880;2023-04-03T03:48:08;6.80;;;2.08;;
55710;SDS011;41612;51.994;5.880;2023-04-03T03:50:34;4.30;;;2.15;;
55710;SDS011;41612;51.994;5.880;2023-04-03T03:53:00;4.93;;;2.03;;
55710;SDS011;41612;51.994;5.880;2023-04-03T03:55:27;6.13;;;2.40;;
55710;SDS011;41612;51.994;5.880;2023-04-03T03:57:55;6.10;;;2.47;;
55710;SDS011;41612;51.994;5.880;2023-04-03T04:00:21;6.20;;;2.17;;
55710;SDS011;41612;51.994;5.880;2023-04-03T04:02:52;7.90;;;2.63;;
55710;SDS011;41612;51.994;5.880;2023-04-03T04:05:21;6.35;;;2.60;;
55710;SDS011;41612;51.994;5.880;2023-04-03T04:07:47;6.35;;;2.30;;
55710;SDS011;41612;51.994;5.880;2023-04-03T04:10:13;5.65;;;2.28;;
55710;SDS011;41612;51.994;5.880;2023-04-03T04:12:39;6.95;;;2.28;;
55710;SDS011;41612;51.994;5.880;2023-04-03T04:15:05;7.32;;;2.25;;
55710;SDS011;41612;51.994;5.880;2023-04-03T04:17:32;5.03;;;2.45;;
55710;SDS011;41612;51.994;5.880;2023-04-03T04:20:00;5.00;;;2.53;;
55710;SDS011;41612;51.994;5.880;2023-04-03T04:22:28;7.60;;;2.60;;
55710;SDS011;41612;51.994;5.880;2023-04-03T04:24:53;8.93;;;2.30;;
55710;SDS011;41612;51.994;5.880;2023-04-03T04:27:19;3.83;;;2.20;;
55710;SDS011;41612;51.994;5.880;2023-04-03T04:29:45;10.80;;;2.78;;
55710;SDS011;41612;51.994;5.880;2023-04-03T04:32:11;4.82;;;2.22;;
55710;SDS011;41612;51.994;5.880;2023-04-03T04:34:37;6.32;;;2.40;;
55710;SDS011;41612;51.994;5.880;2023-04-03T04:37:03;10.15;;;2.75;;
55710;SDS011;41612;51.994;5.880;2023-04-03T04:39:29;5.47;;;2.20;;
55710;SDS011;41612;51.994;5.880;2023-04-03T04:41:56;5.47;;;2.13;;
55710;SDS011;41612;51.994;5.880;2023-04-03T04:44:24;5.10;;;2.10;;
55710;SDS011;41612;51.994;5.880;2023-04-03T04:46:50;6.78;;;2.58;;
55710;SDS011;41612;51.994;5.880;2023-04-03T04:49:16;7.53;;;2.53;;
55710;SDS011;41612;51.994;5.880;2023-04-03T04:51:42;4.30;;;2.22;;
55710;SDS011;41612;51.994;5.880;2023-04-03T04:54:08;7.80;;;2.55;;
55710;SDS011;41612;51.994;5.880;2023-04-03T04:56:35;5.68;;;2.70;;
55710;SDS011;41612;51.994;5.880;2023-04-03T04:59:01;4.13;;;1.90;;
55710;SDS011;41612;51.994;5.880;2023-04-03T05:01:27;6.38;;;2.65;;
55710;SDS011;41612;51.994;5.880;2023-04-03T05:03:59;7.05;;;2.60;;
55710;SDS011;41612;51.994;5.880;2023-04-03T05:06:25;5.53;;;2.45;;
55710;SDS011;41612;51.994;5.880;2023-04-03T05:08:52;8.63;;;2.40;;
55710;SDS011;41612;51.994;5.880;2023-04-03T05:11:18;6.15;;;2.35;;
55710;SDS011;41612;51.994;5.880;2023-04-03T05:13:48;6.18;;;2.47;;
55710;SDS011;41612;51.994;5.880;2023-04-03T05:16:14;7.22;;;2.80;;
55710;SDS011;41612;51.994;5.880;2023-04-03T05:18:39;4.63;;;2.22;;
55710;SDS011;41612;51.994;5.880;2023-04-03T05:23:43;4.90;;;2.33;;
55710;SDS011;41612;51.994;5.880;2023-04-03T05:26:09;6.07;;;2.35;;
55710;SDS011;41612;51.994;5.880;2023-04-03T05:28:35;8.02;;;2.60;;
55710;SDS011;41612;51.994;5.880;2023-04-03T05:31:02;6.97;;;2.90;;
55710;SDS011;41612;51.994;5.880;2023-04-03T05:33:33;10.40;;;3.05;;
55710;SDS011;41612;51.994;5.880;2023-04-03T05:36:05;6.90;;;3.45;;
55710;SDS011;41612;51.994;5.880;2023-04-03T05:38:35;7.03;;;2.60;;
55710;SDS011;41612;51.994;5.880;2023-04-03T05:41:01;11.63;;;2.88;;
55710;SDS011;41612;51.994;5.880;2023-04-03T05:43:27;8.35;;;3.15;;
55710;SDS011;41612;51.994;5.880;2023-04-03T05:45:54;7.32;;;2.90;;
55710;SDS011;41612;51.994;5.880;2023-04-03T05:48:22;4.60;;;2.55;;
55710;SDS011;41612;51.994;5.880;2023-04-03T05:50:48;9.15;;;2.97;;
55710;SDS011;41612;51.994;5.880;2023-04-03T05:53:27;6.25;;;2.33;;
55710;SDS011;41612;51.994;5.880;2023-04-03T05:55:58;5.78;;;2.33;;
55710;SDS011;41612;51.994;5.880;2023-04-03T05:58:25;9.98;;;3.20;;
55710;SDS011;41612;51.994;5.880;2023-04-03T06:00:52;6.68;;;2.90;;
55710;SDS011;41612;51.994;5.880;2023-04-03T06:03:33;7.82;;;2.28;;
55710;SDS011;41612;51.994;5.880;2023-04-03T06:05:59;7.57;;;2.65;;
55710;SDS011;41612;51.994;5.880;2023-04-03T06:08:26;6.05;;;2.10;;
55710;SDS011;41612;51.994;5.880;2023-04-03T06:10:52;7.95;;;2.45;;
55710;SDS011;41612;51.994;5.880;2023-04-03T06:13:18;9.98;;;4.18;;
55710;SDS011;41612;51.994;5.880;2023-04-03T06:15:44;7.28;;;2.30;;
55710;SDS011;41612;51.994;5.880;2023-04-03T06:18:09;5.07;;;2.17;;
55710;SDS011;41612;51.994;5.880;2023-04-03T06:20:35;6.57;;;2.60;;
55710;SDS011;41612;51.994;5.880;2023-04-03T06:23:01;12.05;;;3.17;;
55710;SDS011;41612;51.994;5.880;2023-04-03T06:25:27;7.30;;;2.20;;
55710;SDS011;41612;51.994;5.880;2023-04-03T06:27:53;7.70;;;3.10;;
55710;SDS011;41612;51.994;5.880;2023-04-03T06:30:20;6.88;;;2.60;;
55710;SDS011;41612;51.994;5.880;2023-04-03T06:32:46;18.50;;;4.35;;
55710;SDS011;41612;51.994;5.880;2023-04-03T06:35:12;7.88;;;2.90;;
55710;SDS011;41612;51.994;5.880;2023-04-03T06:37:40;6.18;;;2.47;;
55710;SDS011;41612;51.994;5.880;2023-04-03T06:40:06;7.10;;;3.20;;
55710;SDS011;41612;51.994;5.880;2023-04-03T06:42:32;8.43;;;2.38;;
55710;SDS011;41612;51.994;5.880;2023-04-03T06:45:10;6.05;;;2.50;;
55710;SDS011;41612;51.994;5.880;2023-04-03T06:47:36;9.38;;;3.03;;
55710;SDS011;41612;51.994;5.880;2023-04-03T06:50:02;6.55;;;2.60;;
55710;SDS011;41612;51.994;5.880;2023-04-03T06:52:28;9.13;;;2.60;;
55710;SDS011;41612;51.994;5.880;2023-04-03T06:54:54;5.90;;;2.67;;
55710;SDS011;41612;51.994;5.880;2023-04-03T06:57:22;8.95;;;2.95;;
55710;SDS011;41612;51.994;5.880;2023-04-03T06:59:49;6.03;;;2.85;;
55710;SDS011;41612;51.994;5.880;2023-04-03T07:02:15;5.38;;;2.35;;
55710;SDS011;41612;51.994;5.880;2023-04-03T07:04:41;7.65;;;2.70;;
55710;SDS011;41612;51.994;5.880;2023-04-03T07:07:06;5.78;;;2.38;;
55710;SDS011;41612;51.994;5.880;2023-04-03T07:09:32;7.45;;;3.00;;
55710;SDS011;41612;51.994;5.880;2023-04-03T07:11:58;9.43;;;3.00;;
55710;SDS011;41612;51.994;5.880;2023-04-03T07:14:24;6.95;;;2.13;;
55710;SDS011;41612;51.994;5.880;2023-04-03T07:16:50;5.50;;;2.58;;
55710;SDS011;41612;51.994;5.880;2023-04-03T07:19:15;6.75;;;2.22;;
55710;SDS011;41612;51.994;5.880;2023-04-03T07:21:43;7.10;;;2.58;;
55710;SDS011;41612;51.994;5.880;2023-04-03T07:24:09;7.13;;;2.47;;
55710;SDS011;41612;51.994;5.880;2023-04-03T07:26:35;5.55;;;2.38;;
55710;SDS011;41612;51.994;5.880;2023-04-03T07:29:04;5.20;;;2.10;;
55710;SDS011;41612;51.994;5.880;2023-04-03T07:31:30;6.78;;;2.05;;
55710;SDS011;41612;51.994;5.880;2023-04-03T07:33:56;3.70;;;1.67;;
55710;SDS011;41612;51.994;5.880;2023-04-03T07:36:22;4.88;;;2.22;;
55710;SDS011;41612;51.994;5.880;2023-04-03T07:38:48;7.55;;;2.42;;
55710;SDS011;41612;51.994;5.880;2023-04-03T07:41:14;4.28;;;2.00;;
55710;SDS011;41612;51.994;5.880;2023-04-03T07:43:42;6.72;;;2.78;;
55710;SDS011;41612;51.994;5.880;2023-04-03T07:46:11;4.25;;;2.00;;
55710;SDS011;41612;51.994;5.880;2023-04-03T07:48:37;6.43;;;2.03;;
55710;SDS011;41612;51.994;5.880;2023-04-03T07:51:03;5.82;;;2.45;;
55710;SDS011;41612;51.994;5.880;2023-04-03T07:53:30;7.18;;;2.40;;
55710;SDS011;41612;51.994;5.880;2023-04-03T07:55:56;5.78;;;2.33;;
55710;SDS011;41612;51.994;5.880;2023-04-03T07:58:23;6.63;;;1.92;;
55710;SDS011;41612;51.994;5.880;2023-04-03T08:00:49;7.28;;;1.88;;
55710;SDS011;41612;51.994;5.880;2023-04-03T08:03:15;5.43;;;2.10;;
55710;SDS011;41612;51.994;5.880;2023-04-03T08:05:43;4.28;;;1.83;;
55710;SDS011;41612;51.994;5.880;2023-04-03T08:08:11;6.05;;;2.58;;
55710;SDS011;41612;51.994;5.880;2023-04-03T08:10:39;17.73;;;2.28;;
55710;SDS011;41612;51.994;5.880;2023-04-03T08:13:05;4.32;;;1.92;;
55710;SDS011;41612;51.994;5.880;2023-04-03T08:15:31;5.85;;;1.63;;
55710;SDS011;41612;51.994;5.880;2023-04-03T08:17:58;4.60;;;1.67;;
55710;SDS011;41612;51.994;5.880;2023-04-03T08:20:24;4.00;;;1.60;;
55710;SDS011;41612;51.994;5.880;2023-04-03T08:22:50;5.97;;;2.00;;
55710;SDS011;41612;51.994;5.880;2023-04-03T08:25:16;3.95;;;1.40;;
55710;SDS011;41612;51.994;5.880;2023-04-03T08:27:42;3.35;;;1.58;;
55710;SDS011;41612;51.994;5.880;2023-04-03T08:30:09;5.93;;;1.30;;
55710;SDS011;41612;51.994;5.880;2023-04-03T08:32:38;3.50;;;1.58;;
55710;SDS011;41612;51.994;5.880;2023-04-03T08:35:06;5.43;;;2.17;;
55710;SDS011;41612;51.994;5.880;2023-04-03T08:37:34;3.78;;;1.30;;
55710;SDS011;41612;51.994;5.880;2023-04-03T08:40:02;3.85;;;1.20;;
55710;SDS011;41612;51.994;5.880;2023-04-03T08:42:41;5.03;;;1.60;;
55710;SDS011;41612;51.994;5.880;2023-04-03T08:48:00;3.15;;;1.48;;
55710;SDS011;41612;51.994;5.880;2023-04-03T08:50:39;1.75;;;1.10;;
55710;SDS011;41612;51.994;5.880;2023-04-03T08:53:20;4.53;;;1.67;;
55710;SDS011;41612;51.994;5.880;2023-04-03T08:55:53;3.25;;;1.23;;
55710;SDS011;41612;51.994;5.880;2023-04-03T08:58:28;4.18;;;1.05;;
55710;SDS011;41612;51.994;5.880;2023-04-03T09:00:57;2.35;;;0.80;;
55710;SDS011;41612;51.994;5.880;2023-04-03T09:03:33;4.25;;;1.15;;
55710;SDS011;41612;51.994;5.880;2023-04-03T09:11:46;1.77;;;0.90;;
55710;SDS011;41612;51.994;5.880;2023-04-03T09:14:28;1.92;;;0.90;;
55710;SDS011;41612;51.994;5.880;2023-04-03T09:19:36;1.65;;;0.80;;
55710;SDS011;41612;51.994;5.880;2023-04-03T09:22:17;2.33;;;0.88;;
55710;SDS011;41612;51.994;5.880;2023-04-03T09:24:47;3.95;;;0.65;;
55710;SDS011;41612;51.994;5.880;2023-04-03T09:27:19;2.88;;;1.00;;
55710;SDS011;41612;51.994;5.880;2023-04-03T09:29:45;2.22;;;0.73;;
55710;SDS011;41612;51.994;5.880;2023-04-03T09:32:18;2.55;;;0.82;;
55710;SDS011;41612;51.994;5.880;2023-04-03T09:34:52;2.58;;;0.90;;
55710;SDS011;41612;51.994;5.880;2023-04-03T09:40:29;2.08;;;0.75;;
55710;SDS011;41612;51.994;5.880;2023-04-03T09:45:55;2.05;;;0.68;;
55710;SDS011;41612;51.994;5.880;2023-04-03T09:48:43;3.40;;;0.70;;
55710;SDS011;41612;51.994;5.880;2023-04-03T09:51:16;1.35;;;0.50;;
55710;SDS011;41612;51.994;5.880;2023-04-03T09:53:42;2.03;;;0.70;;
55710;SDS011;41612;51.994;5.880;2023-04-03T09:58:42;4.07;;;1.63;;
55710;SDS011;41612;51.994;5.880;2023-04-03T10:01:27;2.53;;;0.70;;
55710;SDS011;41612;51.994;5.880;2023-04-03T10:06:51;1.73;;;0.70;;
55710;SDS011;41612;51.994;5.880;2023-04-03T10:09:23;2.72;;;0.70;;
55710;SDS011;41612;51.994;5.880;2023-04-03T10:12:11;2.38;;;0.80;;
55710;SDS011;41612;51.994;5.880;2023-04-03T10:14:40;3.45;;;0.80;;
55710;SDS011;41612;51.994;5.880;2023-04-03T10:31:16;2.35;;;1.05;;
55710;SDS011;41612;51.994;5.880;2023-04-03T10:39:25;2.03;;;0.90;;
55710;SDS011;41612;51.994;5.880;2023-04-03T10:45:08;2.22;;;0.90;;
55710;SDS011;41612;51.994;5.880;2023-04-03T10:48:01;3.05;;;1.00;;
55710;SDS011;41612;51.994;5.880;2023-04-03T10:53:30;1.70;;;0.85;;
55710;SDS011;41612;51.994;5.880;2023-04-03T10:56:25;2.38;;;1.30;;
55710;SDS011;41612;51.994;5.880;2023-04-03T10:59:07;1.80;;;0.80;;
55710;SDS011;41612;51.994;5.880;2023-04-03T11:02:00;2.40;;;0.80;;
55710;SDS011;41612;51.994;5.880;2023-04-03T11:04:55;1.95;;;1.00;;
55710;SDS011;41612;51.994;5.880;2023-04-03T11:07:29;2.03;;;0.98;;
55710;SDS011;41612;51.994;5.880;2023-04-03T11:13:02;2.03;;;0.82;;
55710;SDS011;41612;51.994;5.880;2023-04-03T11:16:02;1.75;;;0.85;;
55710;SDS011;41612;51.994;5.880;2023-04-03T11:18:43;2.53;;;1.10;;
55710;SDS011;41612;51.994;5.880;2023-04-03T11:21:21;3.55;;;1.40;;
55710;SDS011;41612;51.994;5.880;2023-04-03T11:24:01;2.03;;;0.90;;
55710;SDS011;41612;51.994;5.880;2023-04-03T11:26:35;2.97;;;0.90;;
55710;SDS011;41612;51.994;5.880;2023-04-03T11:29:06;1.95;;;1.00;;
55710;SDS011;41612;51.994;5.880;2023-04-03T11:34:39;2.03;;;0.95;;
55710;SDS011;41612;51.994;5.880;2023-04-03T11:37:21;3.70;;;1.13;;
55710;SDS011;41612;51.994;5.880;2023-04-03T11:40:18;2.58;;;0.80;;
55710;SDS011;41612;51.994;5.880;2023-04-03T11:42:55;3.35;;;1.05;;
55710;SDS011;41612;51.994;5.880;2023-04-03T11:45:34;1.73;;;0.88;;
55710;SDS011;41612;51.994;5.880;2023-04-03T11:48:41;1.75;;;0.80;;
55710;SDS011;41612;51.994;5.880;2023-04-03T11:51:02;1.52;;;0.73;;
55710;SDS011;41612;51.994;5.880;2023-04-03T11:53:45;2.42;;;0.77;;
55710;SDS011;41612;51.994;5.880;2023-04-03T12:01:49;1.95;;;1.17;;
55710;SDS011;41612;51.994;5.880;2023-04-03T12:04:20;2.47;;;1.10;;
55710;SDS011;41612;51.994;5.880;2023-04-03T12:07:10;1.80;;;0.88;;
55710;SDS011;41612;51.994;5.880;2023-04-03T12:20:58;6.07;;;1.13;;
55710;SDS011;41612;51.994;5.880;2023-04-03T12:23:54;2.60;;;1.35;;
55710;SDS011;41612;51.994;5.880;2023-04-03T12:35:26;3.47;;;1.08;;
55710;SDS011;41612;51.994;5.880;2023-04-03T12:46:42;1.95;;;0.70;;
55710;SDS011;41612;51.994;5.880;2023-04-03T12:49:20;1.52;;;0.70;;
55710;SDS011;41612;51.994;5.880;2023-04-03T12:51:55;3.67;;;1.35;;
55710;SDS011;41612;51.994;5.880;2023-04-03T12:54:22;2.67;;;1.00;;
55710;SDS011;41612;51.994;5.880;2023-04-03T12:56:49;1.88;;;0.80;;
55710;SDS011;41612;51.994;5.880;2023-04-03T12:59:25;1.35;;;0.70;;
55710;SDS011;41612;51.994;5.880;2023-04-03T13:02:34;3.10;;;1.00;;
55710;SDS011;41612;51.994;5.880;2023-04-03T13:05:08;3.33;;;0.93;;
55710;SDS011;41612;51.994;5.880;2023-04-03T13:07:38;3.50;;;0.95;;
55710;SDS011;41612;51.994;5.880;2023-04-03T13:12:33;1.45;;;0.90;;
55710;SDS011;41612;51.994;5.880;2023-04-03T13:15:12;2.55;;;1.00;;
55710;SDS011;41612;51.994;5.880;2023-04-03T13:17:44;2.45;;;1.05;;
55710;SDS011;41612;51.994;5.880;2023-04-03T13:22:55;1.42;;;0.60;;
55710;SDS011;41612;51.994;5.880;2023-04-03T13:25:34;1.80;;;1.05;;
55710;SDS011;41612;51.994;5.880;2023-04-03T13:28:05;2.17;;;1.00;;
55710;SDS011;41612;51.994;5.880;2023-04-03T13:30:33;2.90;;;1.00;;
55710;SDS011;41612;51.994;5.880;2023-04-03T13:33:19;2.65;;;1.00;;
55710;SDS011;41612;51.994;5.880;2023-04-03T13:35:54;2.50;;;0.80;;
55710;SDS011;41612;51.994;5.880;2023-04-03T13:38:31;4.18;;;1.23;;
55710;SDS011;41612;51.994;5.880;2023-04-03T13:41:04;2.50;;;1.00;;
55710;SDS011;41612;51.994;5.880;2023-04-03T13:43:55;2.33;;;1.10;;
55710;SDS011;41612;51.994;5.880;2023-04-03T13:46:25;2.55;;;1.00;;
55710;SDS011;41612;51.994;5.880;2023-04-03T13:48:53;2.20;;;1.02;;
55710;SDS011;41612;51.994;5.880;2023-04-03T13:51:23;2.38;;;1.17;;
55710;SDS011;41612;51.994;5.880;2023-04-03T13:53:53;2.83;;;1.10;;
55710;SDS011;41612;51.994;5.880;2023-04-03T14:01:40;4.28;;;1.20;;
55710;SDS011;41612;51.994;5.880;2023-04-03T14:04:19;4.15;;;1.20;;
55710;SDS011;41612;51.994;5.880;2023-04-03T14:06:48;2.65;;;1.15;;
55710;SDS011;41612;51.994;5.880;2023-04-03T14:09:15;3.70;;;1.33;;
55710;SDS011;41612;51.994;5.880;2023-04-03T14:11:41;2.65;;;0.90;;
55710;SDS011;41612;51.994;5.880;2023-04-03T14:14:18;3.40;;;1.10;;
55710;SDS011;41612;51.994;5.880;2023-04-03T14:16:52;3.03;;;1.17;;
55710;SDS011;41612;51.994;5.880;2023-04-03T14:19:24;5.07;;;1.60;;
55710;SDS011;41612;51.994;5.880;2023-04-03T14:21:51;2.95;;;1.00;;
55710;SDS011;41612;51.994;5.880;2023-04-03T14:24:19;3.45;;;1.38;;
55710;SDS011;41612;51.994;5.880;2023-04-03T14:26:50;3.28;;;1.23;;
55710;SDS011;41612;51.994;5.880;2023-04-03T14:29:17;2.03;;;0.70;;
55710;SDS011;41612;51.994;5.880;2023-04-03T14:31:44;3.90;;;1.23;;
55710;SDS011;41612;51.994;5.880;2023-04-03T14:34:12;3.08;;;0.95;;
55710;SDS011;41612;51.994;5.880;2023-04-03T14:36:41;2.85;;;1.17;;
55710;SDS011;41612;51.994;5.880;2023-04-03T14:39:10;2.40;;;0.90;;
55710;SDS011;41612;51.994;5.880;2023-04-03T14:41:42;2.03;;;0.90;;
55710;SDS011;41612;51.994;5.880;2023-04-03T14:44:08;2.33;;;0.90;;
55710;SDS011;41612;51.994;5.880;2023-04-03T14:46:39;4.25;;;0.90;;
55710;SDS011;41612;51.994;5.880;2023-04-03T14:49:18;3.67;;;1.33;;
55710;SDS011;41612;51.994;5.880;2023-04-03T14:51:46;3.65;;;1.67;;
55710;SDS011;41612;51.994;5.880;2023-04-03T14:54:20;4.40;;;1.83;;
55710;SDS011;41612;51.994;5.880;2023-04-03T14:56:50;2.40;;;1.10;;
55710;SDS011;41612;51.994;5.880;2023-04-03T14:59:17;3.97;;;1.25;;
55710;SDS011;41612;51.994;5.880;2023-04-03T15:01:45;3.42;;;1.45;;
55710;SDS011;41612;51.994;5.880;2023-04-03T15:04:15;3.85;;;1.02;;
55710;SDS011;41612;51.994;5.880;2023-04-03T15:06:42;3.58;;;1.40;;
55710;SDS011;41612;51.994;5.880;2023-04-03T15:09:12;2.17;;;0.90;;
55710;SDS011;41612;51.994;5.880;2023-04-03T15:11:51;2.90;;;1.17;;
55710;SDS011;41612;51.994;5.880;2023-04-03T15:14:18;2.97;;;1.20;;
55710;SDS011;41612;51.994;5.880;2023-04-03T15:16:48;2.85;;;1.15;;
55710;SDS011;41612;51.994;5.880;2023-04-03T15:19:14;2.15;;;0.90;;
55710;SDS011;41612;51.994;5.880;2023-04-03T15:21:40;5.20;;;1.48;;
55710;SDS011;41612;51.994;5.880;2023-04-03T15:24:06;3.08;;;1.15;;
55710;SDS011;41612;51.994;5.880;2023-04-03T15:26:31;2.67;;;1.20;;
55710;SDS011;41612;51.994;5.880;2023-04-03T15:28:58;2.67;;;1.33;;
55710;SDS011;41612;51.994;5.880;2023-04-03T15:31:23;3.55;;;1.50;;
55710;SDS011;41612;51.994;5.880;2023-04-03T15:33:49;2.97;;;1.25;;
55710;SDS011;41612;51.994;5.880;2023-04-03T15:36:15;4.47;;;1.30;;
55710;SDS011;41612;51.994;5.880;2023-04-03T15:38:41;2.97;;;0.93;;
55710;SDS011;41612;51.994;5.880;2023-04-03T15:41:07;3.67;;;1.05;;
55710;SDS011;41612;51.994;5.880;2023-04-03T15:43:32;3.13;;;1.15;;
55710;SDS011;41612;51.994;5.880;2023-04-03T15:45:58;3.33;;;1.35;;
55710;SDS011;41612;51.994;5.880;2023-04-03T15:48:25;5.55;;;1.52;;
55710;SDS011;41612;51.994;5.880;2023-04-03T15:50:52;4.50;;;1.77;;
55710;SDS011;41612;51.994;5.880;2023-04-03T15:53:18;3.90;;;1.67;;
55710;SDS011;41612;51.994;5.880;2023-04-03T15:55:44;3.22;;;1.27;;
55710;SDS011;41612;51.994;5.880;2023-04-03T15:58:10;5.22;;;1.23;;
55710;SDS011;41612;51.994;5.880;2023-04-03T16:00:36;2.35;;;1.20;;
55710;SDS011;41612;51.994;5.880;2023-04-03T16:03:08;4.55;;;1.65;;
55710;SDS011;41612;51.994;5.880;2023-04-03T16:05:37;4.80;;;1.83;;
55710;SDS011;41612;51.994;5.880;2023-04-03T16:08:04;4.30;;;1.40;;
55710;SDS011;41612;51.994;5.880;2023-04-03T16:10:31;4.70;;;1.20;;
55710;SDS011;41612;51.994;5.880;2023-04-03T16:12:57;5.32;;;1.33;;
55710;SDS011;41612;51.994;5.880;2023-04-03T16:15:23;2.72;;;1.10;;
55710;SDS011;41612;51.994;5.880;2023-04-03T16:17:50;3.33;;;1.38;;
55710;SDS011;41612;51.994;5.880;2023-04-03T16:20:16;3.08;;;1.40;;
55710;SDS011;41612;51.994;5.880;2023-04-03T16:22:43;2.95;;;1.20;;
55710;SDS011;41612;51.994;5.880;2023-04-03T16:25:09;3.75;;;1.42;;
55710;SDS011;41612;51.994;5.880;2023-04-03T16:27:35;2.03;;;0.95;;
55710;SDS011;41612;51.994;5.880;2023-04-03T16:30:01;3.42;;;1.20;;
55710;SDS011;41612;51.994;5.880;2023-04-03T16:32:31;4.20;;;1.50;;
55710;SDS011;41612;51.994;5.880;2023-04-03T16:34:58;3.80;;;1.55;;
55710;SDS011;41612;51.994;5.880;2023-04-03T16:37:24;4.53;;;1.52;;
55710;SDS011;41612;51.994;5.880;2023-04-03T16:39:50;3.63;;;1.40;;
55710;SDS011;41612;51.994;5.880;2023-04-03T16:42:28;3.67;;;1.40;;
55710;SDS011;41612;51.994;5.880;2023-04-03T16:44:54;6.57;;;1.67;;
55710;SDS011;41612;51.994;5.880;2023-04-03T16:47:20;3.85;;;1.48;;
55710;SDS011;41612;51.994;5.880;2023-04-03T16:49:46;3.00;;;1.30;;
55710;SDS011;41612;51.994;5.880;2023-04-03T16:52:12;4.57;;;1.58;;